Terminal Aerodrome Forecast
Issued by NWS Cleveland, OH

Home | Current Version | Previous Version | Graphics & Text | Print | Product List | Glossary On
Versions: 1 2 3 4 5 6 7 8 9 10 11 12 13 14 15 16 17 18 19 20 21 22 23 24 25 26 27
000
FTUS41 KCLE 261400 AAA
TAFCLE
TAF AMD
KCLE 261457Z 2615/2718 04005KT P6SM OVC030
      TEMPO 2617/2620 SCT030 BKN100
     FM270000 36005KT P6SM OVC025=

USA.gov is the U.S. government's official web portal to all federal, state and local government web resources and services.